KTOI

Troy Municipal at N Kenneth Campbell Field Airport

Troy, Alabama, USA
METAR KTOI 191453Z AUTO 00000KT 10SM CLR 00/M03 A3040 RMK AO2 SLP296 T00001033 53010
Observed Flight Rules
Jan-19 @ 14:53 UTC (38 minutes ago) Visual Flight Rules
Wind Visibility Clouds
Calm 10 miles
  • Clear skies
Temperatures Readings
Current 0°C / 32°F
Dewpoint -3°C / 27°F
Humidity 80%
Altimeter 30.4" Hg
Pressure 1029.6 hPa
Elevation 118
METAR KTOI 191453Z AUTO 00000KT 10SM CLR 00/M03 A3040 RMK AO2 SLP296 T00001033 53010
Observed Flight Rules
Jan-19 @ 14:53 UTC
(38 minutes ago)
VFR
Wind Visibility
Calm 10 miles
Clouds
  • Clear skies
Temperature Dewpoint
0°C / 32°F -3°C / 27°F
Humidity Altimeter Pressure
80% 30.4" Hg 1029.6 hPa